Kasper Jensen

Chefscout - AGF
13 Feb 2028
Sonntag
Verarbeitung

Persönlichkeit

Anpassungsfähigkeit (19) Ehrgeiz (10) Kontroverse (11) Loyalität (2) Druck (19) Professionalität (20) Fairness (19) Temperament (5)

Profil

Trainerstil Demokratisch
Lizenz Nationale B
Entschlossenheit 7
Menschenführung 6
Motivation 8
Disziplin 11
Arbeitszufriedenheit
100%
Ermüdung
0%
Rolle Chefscout
Gehalt 29.9K p/W
Vertrag 14.03.2030

Leistung

Verhalten Gut
Trainingseffektivität
41%
Spielerentwicklung
30%
Verletzungsprävention
25%
Taktische Umsetzung
35%

Letzte Ereignisse

Nahm an einer Scouting-Besprechung teil 7T her
Empfahl ein Transferziel 7T her
Empfahl ein Transferziel 7T her
Empfahl ein Transferziel 7T her
Empfahl ein Transferziel 7T her
Empfahl ein Transferziel 14T her
Empfahl ein Transferziel 14T her
Spieler begutachtet 14T her

Aktuell beobachtet

88
Spieler Verein Status Fähigkeit Vertrauen Beobachtet Zuletzt beobachtet Letzte Stimme
Nicolas America Mineiro Aktiv 101 / 111 40% 2 25.01.2028 -
Chris Rigg Bournemouth Aktiv 136 / 153 40% 1 25.01.2028 -
Ilja Ivarlak Spartak Moscow Aktiv 81 / 95 40% 1 25.01.2028 -
Jay-Roy Grot OB Verloren 115 / 108 69% 1 24.01.2028 Befürworten
Ousseynou Seck Randers Aktiv 123 / 131 69% 1 17.01.2028 Befürworten
Junior Hernández Deportes Tolima Aktiv 126 / 125 40% 1 11.01.2028 -
Miguel Navarro Colorado Rapids Aktiv 124 / 118 40% 1 11.01.2028 -
Aldair Zárate Atletico Bucaramanga Aktiv 115 / 130 40% 1 11.01.2028 -
Mike Themsen Randers Aktiv 112 / 129 69% 1 10.01.2028 Befürworten
Daniel Høegh Randers Aktiv 116 / 121 69% 1 07.01.2028 Befürworten
Valentino Acuña Newell's Old Boys Aktiv 125 / 115 40% 1 05.01.2028 -
Arkhip Kazantsev Zenit Penza Aktiv 82 / 99 40% 1 05.01.2028 -
Sebastian Lodberg Pergolettese Aktiv 94 / 107 40% 1 04.01.2028 -
Pape Diong Westerlo Aktiv 117 / 135 40% 2 02.01.2028 -
Robert Taylor FC Midtjylland Aktiv 128 / 116 69% 1 02.01.2028 Befürworten
Alpha Touré FC Metz Aktiv 129 / 134 40% 1 02.01.2028 -
Tobías Andrada River Plate Verhandlung 123 / 138 40% 1 02.01.2028 -
Johannes Eggestein VfB Stuttgart Aktiv 125 / 125 67% 1 01.01.2028 Befürworten
Jenson Jones Penafiel Aktiv 105 / 97 40% 1 01.01.2028 -
Aytor Herrera Llaneros Aktiv 71 / 83 40% 1 01.01.2028 -
Pedro Soma San Diego Football Club Aktiv 109 / 113 40% 1 31.08.2027 -
Åke Andersson IFK Norrkoping Aktiv 90 / 95 40% 1 31.08.2027 -
Mbekezeli Mbokazi Chicago Fire Aktiv 130 / 131 40% 5 24.08.2027 -
Duvan Giraldo Cortulua Aktiv 120 / 123 40% 2 24.08.2027 -
Olaniyi Saheed Kwara United Aktiv 93 / 111 40% 3 24.08.2027 -
Abdoulie Tamba GIF Sundsvall Aktiv 98 / 109 40% 1 23.08.2027 -
Kjell Wätjen FC Midtjylland Aktiv 115 / 132 40% 1 23.08.2027 -
Jeffrey Annan Hasaacas Aktiv 95 / 88 40% 2 22.08.2027 -
Gift Udoh Ikorodu City Aktiv 87 / 95 40% 1 22.08.2027 -
Malte Hallin GIF Sundsvall Aktiv 85 / 88 40% 1 22.08.2027 -
Sebastián Arancibia Universidad Catolica Aktiv 115 / 123 40% 1 17.08.2027 -
Godwin Oham Warri Wolves Aktiv 96 / 95 40% 3 15.08.2027 -
Alexander Warneryd Tromso Aktiv 109 / 111 40% 1 15.08.2027 -
Mpho Khethang AS Police Aktiv 99 / 87 40% 1 15.08.2027 -
Mattia Mannini Juve Stabia Aktiv 113 / 133 40% 3 14.08.2027 -
Nahuel Leivas Montevideo City Torque Aktiv 117 / 122 40% 2 14.08.2027 -
Claudio Martey Pianese Aktiv 99 / 79 40% 2 14.08.2027 -
Edwin Asamoah Berekum Chelsea Aktiv 73 / 81 40% 2 13.08.2027 -
Julián Bazán New York Red Bulls Aktiv 115 / 119 40% 3 13.08.2027 -
Victor Ehibe Barau Aktiv 97 / 100 40% 1 11.08.2027 -
Elson Mendes Kasimpasa Aktiv 98 / 94 40% 1 11.08.2027 -
Chibueze Oputa Rangers International Aktiv 77 / 91 40% 4 10.08.2027 -
Alin Kumer Čelik Genoa Aktiv 103 / 92 40% 1 10.08.2027 -
Konta Ismaily Aktiv 97 / 112 40% 3 09.08.2027 -
Maeson King Portsmouth Aktiv 113 / 111 40% 3 09.08.2027 -
Martim Cunha Porto Aktiv 99 / 105 40% 3 03.08.2027 -
Daniel Banjaqui Benfica Aktiv 130 / 137 40% 3 03.08.2027 -
Honest Ahanor Udinese Aktiv 125 / 128 40% 3 02.08.2027 -
Keita Kosugi Eintracht Frankfurt Aktiv 114 / 126 40% 1 02.08.2027 -
Simón Pinto Palestino Aktiv 96 / 120 40% 2 01.08.2027 -
Salvador Blopá Sporting CP Aktiv 134 / 136 40% 1 01.08.2027 -
Lautaro Dufur Rentistas Aktiv 95 / 108 40% 2 29.07.2027 -
Elias Baum Eintracht Frankfurt Aktiv 141 / 146 40% 3 29.07.2027 -
Moncef Zekri Sporting CP Aktiv 112 / 121 40% 3 25.07.2027 -
Jan Bürger Burton Albion Aktiv 109 / 121 40% 5 23.07.2027 -
Caleb Yirenkyi Coventry City Aktiv 150 / 150 40% 2 22.07.2027 -
Daniel Dennis Ikorodu City Aktiv 84 / 88 40% 1 22.07.2027 -
Sam Parker Swansea City Aktiv 110 / 97 40% 1 21.07.2027 -
Gustavo Albarracín Alavés Aktiv 127 / 128 40% 1 20.07.2027 -
Ronan Kpakio West Bromwich Albion Aktiv 123 / 125 40% 1 20.07.2027 -
Aidan Elliott-Wheeler Gillingham Aktiv 93 / 96 40% 1 12.07.2027 -
Habeeb Ogunneye Exeter City Aktiv 86 / 111 40% 1 11.07.2027 -
Arjan Malić Sturm Graz Aktiv 137 / 125 40% 1 11.07.2027 -
Simeon Vasilev Arda Aktiv 90 / 114 40% 1 09.07.2027 -
Peter Ademola Bendel Insurance Aktiv 95 / 113 40% 1 08.07.2027 -
Joel McGregor Swindon Town Aktiv 92 / 110 40% 3 07.07.2027 -
Amine Boukamir Westerlo Aktiv 93 / 117 40% 1 07.07.2027 -
Rhys Walters Port Vale Aktiv 111 / 111 40% 1 06.07.2027 -
Sabil Hansen Randers Aktiv 106 / 107 40% 2 05.07.2027 -
Mirsad Ali Barrow AFC Aktiv 95 / 94 40% 1 04.07.2027 -
Jens Hjertø-Dahl Hull City Aktiv 124 / 139 40% 1 04.07.2027 -
Louis Page West Ham United Aktiv 128 / 137 40% 1 30.06.2027 -
Miguel Figueiredo Benfica Aktiv 103 / 112 40% 1 30.06.2027 -
Mauricio Amaro Atlanta United FC Aktiv 123 / 132 40% 2 28.06.2027 -
Callum Tripp Milton Keynes Dons Aktiv 96 / 100 40% 1 26.06.2027 -
Milan Roganović Partizan Aktiv 120 / 132 40% 1 25.06.2027 -
Kazunari Kita Real Sociedad Aktiv 89 / 105 40% 1 22.06.2027 -
Jannich Storch Randers Aktiv 122 / 104 65% 1 21.06.2027 Befürworten
Will Mannion Charlton Athletic Aktiv 121 / 114 40% 1 01.06.2027 -
Christian Walton Ipswich Town Aktiv 127 / 121 40% 1 01.06.2027 -
Michael Cooper Sheffield United Aktiv 132 / 129 40% 1 01.06.2027 -
Matteo Pérez Vinlöf Dinamo Zagreb Aktiv 128 / 133 40% 1 01.01.2027 -
Runar Norheim FC Nordsjaelland Aktiv 111 / 121 40% 1 25.08.2026 -
Reed Baker-Whiting Nashville SC Aktiv 95 / 110 40% 1 19.08.2026 -
Felipe Schaare Racing Club Aktiv 81 / 108 40% 1 19.08.2026 -
Kiano Dyer Chelsea Aktiv 84 / 95 40% 1 04.08.2026 -
Joaquín Parras Independiente Aktiv 84 / 82 40% 1 04.08.2026 -
Elliot Lee Wrexham Aktiv 99 / 105 40% 1 01.08.2026 -